Time;durP1;ratioP1;P1;durP2;ratioP2;P2;SDS_P1;SDS_P2;PMS_P1;PMS_P2;Temp;Humidity;BMP_temperature;BMP_pressure;BME280_temperature;BME280_humidity;BME280_pressure;Samples;Min_cycle;Max_cycle;Signal;HPM_P1;HPM_P2
2021/05/28 00:00:29;;;;;;;4.35;3.38;;;11.20;84.50;;;;;;5019699;28;20029;-72
2021/05/28 00:02:55;;;;;;;3.92;3.50;;;11.20;84.60;;;;;;5042962;28;20055;-72
2021/05/28 00:05:21;;;;;;;5.07;3.28;;;11.20;84.60;;;;;;5028411;28;20091;-72
2021/05/28 00:07:46;;;;;;;4.13;3.58;;;11.20;84.50;;;;;;5033407;28;20032;-72
2021/05/28 00:10:13;;;;;;;4.70;4.30;;;11.20;84.60;;;;;;5012802;28;20029;-72
2021/05/28 00:12:39;;;;;;;6.05;4.63;;;11.20;84.70;;;;;;5037968;28;20025;-73
2021/05/28 00:15:12;;;;;;;5.55;4.35;;;11.20;84.60;;;;;;5016785;28;20504;-72
2021/05/28 00:17:38;;;;;;;5.30;4.20;;;11.20;84.90;;;;;;5013600;28;20021;-72
2021/05/28 00:20:06;;;;;;;5.30;4.43;;;11.20;84.90;;;;;;5035829;28;20521;-73
2021/05/28 00:22:32;;;;;;;5.18;4.53;;;11.20;84.90;;;;;;5013034;28;20021;-74
2021/05/28 00:24:58;;;;;;;6.10;5.07;;;11.20;84.90;;;;;;5038921;28;20087;-72
2021/05/28 00:27:24;;;;;;;7.30;4.95;;;11.20;85.00;;;;;;5031807;28;20029;-72
2021/05/28 00:29:50;;;;;;;6.10;5.25;;;11.20;85.00;;;;;;5012050;28;20030;-72
2021/05/28 00:32:16;;;;;;;5.80;5.20;;;11.20;85.00;;;;;;5028718;28;20064;-73
2021/05/28 00:34:41;;;;;;;6.85;5.75;;;11.10;84.90;;;;;;5012824;28;20107;-72
2021/05/28 00:37:07;;;;;;;6.80;6.10;;;11.10;85.10;;;;;;5015331;28;20060;-72
2021/05/28 00:39:32;;;;;;;6.82;6.15;;;11.10;85.20;;;;;;5014506;28;20044;-72
2021/05/28 00:41:58;;;;;;;7.75;6.50;;;11.00;85.30;;;;;;5032509;28;20085;-73
2021/05/28 00:44:27;;;;;;;7.10;6.18;;;11.00;85.40;;;;;;5030248;28;20576;-72
2021/05/28 00:46:53;;;;;;;7.95;6.05;;;11.00;85.80;;;;;;5033146;28;20033;-72
2021/05/28 00:49:18;;;;;;;6.93;6.03;;;11.00;85.70;;;;;;5031795;28;20035;-72
2021/05/28 00:51:44;;;;;;;8.40;5.95;;;11.00;85.80;;;;;;5030023;28;20087;-72
2021/05/28 00:54:10;;;;;;;8.25;6.57;;;11.10;85.80;;;;;;5011227;28;20497;-73
2021/05/28 00:56:38;;;;;;;6.78;5.70;;;11.10;85.80;;;;;;5012540;28;20110;-71
2021/05/28 00:59:04;;;;;;;6.60;5.75;;;11.00;85.60;;;;;;5023877;28;20045;-73
2021/05/28 01:01:30;;;;;;;6.68;5.32;;;11.00;85.60;;;;;;5023492;28;20025;-72
2021/05/28 01:03:55;;;;;;;8.25;5.85;;;11.00;85.80;;;;;;5011113;28;20320;-73
2021/05/28 01:06:22;;;;;;;8.40;6.15;;;10.90;85.60;;;;;;5029873;28;20037;-71
2021/05/28 01:08:48;;;;;;;9.38;6.93;;;10.90;85.50;;;;;;5039326;28;20027;-72
2021/05/28 01:11:14;;;;;;;8.82;6.68;;;10.90;85.60;;;;;;5026832;28;20037;-72
2021/05/28 01:13:39;;;;;;;10.02;7.18;;;10.80;85.70;;;;;;5031200;28;20430;-72
2021/05/28 01:16:05;;;;;;;9.48;7.18;;;10.80;85.90;;;;;;5004342;28;20052;-72
2021/05/28 01:18:31;;;;;;;10.73;7.85;;;10.80;85.80;;;;;;5030719;28;20029;-73
2021/05/28 01:20:57;;;;;;;11.25;7.78;;;10.80;85.80;;;;;;5015960;28;20033;-71
2021/05/28 01:23:22;;;;;;;9.45;7.82;;;10.70;85.90;;;;;;5039280;28;20159;-72
2021/05/28 01:25:48;;;;;;;12.90;8.40;;;10.60;86.10;;;;;;5029631;28;20166;-71
2021/05/28 01:28:14;;;;;;;9.05;7.57;;;10.60;86.10;;;;;;5012260;28;20283;-71
2021/05/28 01:30:40;;;;;;;11.23;7.50;;;10.60;86.40;;;;;;5031482;28;20026;-72
2021/05/28 01:33:06;;;;;;;10.45;6.53;;;10.50;86.30;;;;;;5026010;28;20025;-73
2021/05/28 01:35:31;;;;;;;8.52;7.15;;;10.50;86.50;;;;;;5030308;28;20101;-73
2021/05/28 01:37:57;;;;;;;10.68;7.40;;;10.50;86.80;;;;;;5041831;28;20072;-73
2021/05/28 01:40:23;;;;;;;9.90;7.05;;;10.50;86.70;;;;;;5046289;28;20049;-71
2021/05/28 01:42:49;;;;;;;9.20;7.55;;;10.50;86.90;;;;;;5023163;28;20029;-73
2021/05/28 01:45:16;;;;;;;12.02;7.60;;;10.60;87.20;;;;;;5031005;28;20116;-72
2021/05/28 01:47:42;;;;;;;8.95;7.50;;;10.60;87.20;;;;;;5029822;28;20028;-71
2021/05/28 01:50:10;;;;;;;10.23;7.03;;;10.60;87.30;;;;;;5037084;28;20026;-72
2021/05/28 01:52:36;;;;;;;9.35;7.18;;;10.70;87.40;;;;;;5029283;28;20112;-72
2021/05/28 01:55:04;;;;;;;8.75;6.65;;;10.70;87.30;;;;;;5048042;28;20195;-72
2021/05/28 01:57:29;;;;;;;8.45;6.30;;;10.70;87.30;;;;;;5038968;28;20569;-73
2021/05/28 01:59:55;;;;;;;7.40;6.00;;;10.70;87.10;;;;;;5029355;28;20100;-73
2021/05/28 02:02:20;;;;;;;6.78;5.95;;;10.70;87.20;;;;;;5046479;28;20128;-73
2021/05/28 02:04:46;;;;;;;7.93;6.30;;;10.70;87.10;;;;;;5027298;28;20029;-73
2021/05/28 02:07:12;;;;;;;8.18;5.97;;;10.60;86.80;;;;;;5030914;28;20083;-72
2021/05/28 02:09:38;;;;;;;7.10;5.78;;;10.60;86.90;;;;;;5022968;28;20029;-72
2021/05/28 02:12:04;;;;;;;5.90;5.30;;;10.60;87.10;;;;;;5049065;28;20064;-73
2021/05/28 02:14:30;;;;;;;9.57;6.35;;;10.60;87.30;;;;;;5047745;28;20052;-72
2021/05/28 02:16:56;;;;;;;7.65;5.30;;;10.60;87.30;;;;;;5048617;28;20377;-73
2021/05/28 02:19:22;;;;;;;7.45;5.07;;;10.60;87.20;;;;;;5048965;28;20047;-72
2021/05/28 02:21:49;;;;;;;8.38;5.95;;;10.60;87.30;;;;;;5048727;28;20048;-72
2021/05/28 02:24:16;;;;;;;8.60;5.88;;;10.60;87.20;;;;;;5028900;28;20030;-73
2021/05/28 02:26:46;;;;;;;11.07;5.85;;;10.60;87.30;;;;;;5030578;28;20121;-73
2021/05/28 02:29:12;;;;;;;7.13;5.40;;;10.60;87.20;;;;;;5047278;28;20082;-73
2021/05/28 02:31:38;;;;;;;7.95;6.03;;;10.60;87.10;;;;;;5030524;28;20025;-72
2021/05/28 02:34:04;;;;;;;9.38;5.97;;;10.60;87.10;;;;;;5047580;28;20051;-73
2021/05/28 02:36:30;;;;;;;8.00;6.13;;;10.60;87.20;;;;;;5048219;28;20440;-73
2021/05/28 02:38:55;;;;;;;7.70;6.18;;;10.60;87.10;;;;;;5045109;28;20029;-73
2021/05/28 02:41:21;;;;;;;10.57;6.80;;;10.60;87.10;;;;;;5048322;28;20083;-72
2021/05/28 02:43:47;;;;;;;9.38;6.63;;;10.60;86.90;;;;;;5047986;28;20132;-73
2021/05/28 02:46:12;;;;;;;8.80;6.57;;;10.50;86.80;;;;;;5029528;28;20074;-73
2021/05/28 02:48:38;;;;;;;9.07;6.25;;;10.50;86.80;;;;;;5047774;28;20314;-73
2021/05/28 02:51:04;;;;;;;9.50;6.15;;;10.40;86.70;;;;;;5047631;28;20036;-73
2021/05/28 02:53:33;;;;;;;10.13;6.28;;;10.40;87.00;;;;;;5030601;28;20485;-73
2021/05/28 02:55:59;;;;;;;9.75;6.70;;;10.40;87.20;;;;;;5051161;28;20049;-71
2021/05/28 02:58:25;;;;;;;9.32;6.68;;;10.40;87.40;;;;;;5042642;28;20543;-72
2021/05/28 03:00:51;;;;;;;10.68;7.53;;;10.40;87.30;;;;;;5052261;28;20033;-73
2021/05/28 03:03:16;;;;;;;9.70;7.50;;;10.50;87.30;;;;;;5046829;28;20055;-73
2021/05/28 03:05:42;;;;;;;12.63;7.15;;;10.50;87.40;;;;;;5050765;28;20032;-73
2021/05/28 03:08:07;;;;;;;9.20;6.75;;;10.50;87.30;;;;;;5050248;28;20027;-72
2021/05/28 03:10:33;;;;;;;10.63;6.65;;;10.50;87.10;;;;;;5033492;28;20116;-72
2021/05/28 03:12:58;;;;;;;11.05;7.20;;;10.50;87.10;;;;;;5033432;28;20021;-73
2021/05/28 03:15:24;;;;;;;10.73;6.82;;;10.40;87.20;;;;;;5050394;28;20025;-73
2021/05/28 03:17:49;;;;;;;11.07;7.15;;;10.50;87.30;;;;;;5049678;28;20496;-71
2021/05/28 03:20:19;;;;;;;11.95;7.03;;;10.50;87.40;;;;;;5034104;28;20098;-73
2021/05/28 03:22:45;;;;;;;9.05;6.85;;;10.40;87.20;;;;;;5051066;28;20021;-73
2021/05/28 03:25:12;;;;;;;12.18;7.47;;;10.40;87.20;;;;;;5032875;28;20422;-73
2021/05/28 03:27:39;;;;;;;8.38;6.80;;;10.40;87.30;;;;;;5047104;28;20017;-73
2021/05/28 03:30:06;;;;;;;9.98;6.80;;;10.30;87.40;;;;;;5050406;28;20052;-73
2021/05/28 03:32:32;;;;;;;7.63;6.13;;;10.30;87.60;;;;;;5049558;28;20029;-73
2021/05/28 03:34:58;;;;;;;10.52;6.93;;;10.40;87.80;;;;;;5050278;28;20048;-73
2021/05/28 03:37:25;;;;;;;8.57;6.80;;;10.40;87.80;;;;;;5038136;28;20482;-72
2021/05/28 03:39:51;;;;;;;10.60;6.95;;;10.40;87.70;;;;;;5031527;28;20139;-72
2021/05/28 03:42:18;;;;;;;9.10;7.22;;;10.40;87.70;;;;;;5013586;28;20029;-72
2021/05/28 03:44:44;;;;;;;10.07;7.68;;;10.40;87.60;;;;;;5003887;28;20124;-72
2021/05/28 03:47:10;;;;;;;9.38;7.50;;;10.30;87.50;;;;;;5031227;28;20025;-72
2021/05/28 03:49:37;;;;;;;11.85;7.25;;;10.30;87.60;;;;;;5004104;28;20026;-74
2021/05/28 03:52:03;;;;;;;10.32;7.03;;;10.30;87.70;;;;;;5023966;28;20025;-73
2021/05/28 03:54:28;;;;;;;12.45;7.85;;;10.30;87.80;;;;;;5028631;28;20122;-73
2021/05/28 03:56:54;;;;;;;10.48;6.90;;;10.30;87.90;;;;;;5008852;28;20025;-73
2021/05/28 03:59:19;;;;;;;13.38;8.45;;;10.40;88.00;;;;;;5030872;28;20087;-73
2021/05/28 04:01:45;;;;;;;10.85;8.15;;;10.40;88.00;;;;;;5012275;28;20351;-73
2021/05/28 04:04:11;;;;;;;12.93;8.40;;;10.40;87.90;;;;;;5017878;28;20076;-73
2021/05/28 04:06:36;;;;;;;14.73;9.30;;;10.40;88.00;;;;;;5026202;28;20040;-73
2021/05/28 04:09:03;;;;;;;13.10;8.68;;;10.40;88.10;;;;;;5030839;28;20029;-72
2021/05/28 04:11:28;;;;;;;12.82;9.02;;;10.40;88.00;;;;;;5030750;28;20030;-72
2021/05/28 04:13:54;;;;;;;13.10;9.00;;;10.40;88.00;;;;;;5029965;28;20025;-72
2021/05/28 04:16:19;;;;;;;12.77;9.38;;;10.50;88.10;;;;;;5012839;28;20378;-72
2021/05/28 04:18:45;;;;;;;15.18;9.77;;;10.50;88.20;;;;;;5012834;28;20075;-73
2021/05/28 04:21:11;;;;;;;13.80;9.50;;;10.50;88.20;;;;;;5030537;28;20033;-72
2021/05/28 04:23:37;;;;;;;13.68;9.48;;;10.50;88.00;;;;;;5012520;28;20434;-73
2021/05/28 04:26:03;;;;;;;14.50;9.65;;;10.60;88.10;;;;;;5028823;28;20029;-72
2021/05/28 04:28:28;;;;;;;14.20;9.57;;;10.60;88.10;;;;;;5024936;28;20025;-72
2021/05/28 04:30:55;;;;;;;15.75;9.38;;;10.60;88.00;;;;;;5012904;28;20187;-72
2021/05/28 04:33:21;;;;;;;13.60;10.15;;;10.50;88.00;;;;;;5030749;28;20029;-73
2021/05/28 04:35:47;;;;;;;16.13;10.05;;;10.50;88.10;;;;;;5029922;28;20029;-73
2021/05/28 04:38:12;;;;;;;16.58;10.23;;;10.50;88.10;;;;;;5049918;28;20024;-72
2021/05/28 04:40:38;;;;;;;14.45;9.63;;;10.60;88.20;;;;;;5051306;28;20061;-73
2021/05/28 04:43:04;;;;;;;16.85;10.38;;;10.60;88.20;;;;;;5033130;28;20025;-73
2021/05/28 04:45:29;;;;;;;16.75;10.45;;;10.60;88.20;;;;;;5050356;28;20435;-73
2021/05/28 04:47:55;;;;;;;14.50;10.68;;;10.60;88.10;;;;;;5028401;28;20024;-73
2021/05/28 04:50:21;;;;;;;17.65;10.65;;;10.70;88.10;;;;;;5046303;28;20490;-73
2021/05/28 04:52:47;;;;;;;15.05;10.32;;;10.70;88.10;;;;;;5037700;28;20045;-72
2021/05/28 04:55:14;;;;;;;15.50;10.80;;;10.70;88.10;;;;;;5049738;28;20524;-73
2021/05/28 04:57:40;;;;;;;16.63;10.38;;;10.70;88.10;;;;;;5022438;28;20032;-74
2021/05/28 05:00:07;;;;;;;17.95;10.63;;;10.70;88.10;;;;;;5050967;28;20100;-74
2021/05/28 05:02:33;;;;;;;17.73;11.27;;;10.70;88.10;;;;;;5042912;28;20027;-75
2021/05/28 05:04:59;;;;;;;17.55;11.18;;;10.80;88.10;;;;;;5043797;28;20021;-75
2021/05/28 05:07:24;;;;;;;17.92;12.20;;;10.80;88.10;;;;;;5032401;28;20044;-74
2021/05/28 05:09:50;;;;;;;14.55;10.57;;;10.80;87.90;;;;;;5033513;28;20503;-75
2021/05/28 05:12:16;;;;;;;16.15;11.48;;;10.80;87.90;;;;;;5033557;28;20047;-74
2021/05/28 05:14:41;;;;;;;16.77;11.32;;;10.80;88.00;;;;;;5032350;28;20027;-74
2021/05/28 05:17:07;;;;;;;15.55;10.65;;;10.80;87.90;;;;;;5049144;28;20044;-74
2021/05/28 05:19:32;;;;;;;18.00;11.15;;;10.80;88.00;;;;;;5031865;28;20052;-74
2021/05/28 05:21:58;;;;;;;15.32;10.82;;;10.80;87.90;;;;;;5032451;28;20024;-73
2021/05/28 05:24:23;;;;;;;17.77;10.88;;;10.90;87.90;;;;;;5049121;28;20377;-73
2021/05/28 05:26:49;;;;;;;16.23;10.98;;;10.90;87.90;;;;;;5044092;28;20516;-72
2021/05/28 05:29:15;;;;;;;17.75;11.35;;;10.90;87.90;;;;;;5046365;28;20528;-74
2021/05/28 05:31:41;;;;;;;18.95;11.18;;;10.90;87.90;;;;;;5049772;28;20033;-73
2021/05/28 05:34:07;;;;;;;19.00;11.05;;;11.00;87.90;;;;;;5029446;28;20028;-72
2021/05/28 05:36:35;;;;;;;15.43;10.30;;;11.00;87.90;;;;;;5049119;28;20477;-73
2021/05/28 05:39:01;;;;;;;17.83;11.48;;;11.00;87.80;;;;;;5049767;28;20025;-72
2021/05/28 05:41:27;;;;;;;15.05;10.50;;;11.00;87.70;;;;;;5048078;28;20025;-73
2021/05/28 05:43:53;;;;;;;17.75;10.68;;;11.00;87.80;;;;;;5049617;28;20409;-72
2021/05/28 05:46:18;;;;;;;15.93;11.48;;;11.00;87.70;;;;;;5029511;28;20025;-72
2021/05/28 05:48:44;;;;;;;15.68;9.98;;;11.10;87.60;;;;;;5048986;28;20032;-72
2021/05/28 05:51:09;;;;;;;16.92;10.45;;;11.10;87.50;;;;;;5049839;28;20060;-72
2021/05/28 05:53:35;;;;;;;16.38;11.15;;;11.10;87.60;;;;;;5050130;28;20096;-72
2021/05/28 05:56:01;;;;;;;14.05;10.57;;;11.10;87.60;;;;;;5049267;28;20059;-72
2021/05/28 05:58:26;;;;;;;17.48;11.27;;;11.20;87.70;;;;;;5038051;28;20418;-72
2021/05/28 06:00:52;;;;;;;19.15;10.98;;;11.20;87.70;;;;;;5040009;28;20025;-71
2021/05/28 06:03:17;;;;;;;17.75;11.50;;;11.20;87.70;;;;;;5049928;28;20090;-71
2021/05/28 06:05:44;;;;;;;17.70;12.02;;;11.30;87.70;;;;;;5049399;28;20025;-72
2021/05/28 06:08:09;;;;;;;16.55;12.18;;;11.30;87.60;;;;;;5032092;28;20347;-72
2021/05/28 06:10:35;;;;;;;17.50;11.32;;;11.30;87.60;;;;;;5049314;28;20090;-71
2021/05/28 06:13:02;;;;;;;17.67;11.73;;;11.30;87.60;;;;;;5049881;28;20035;-71
2021/05/28 06:15:28;;;;;;;16.92;11.73;;;11.40;87.60;;;;;;5048988;28;20089;-72
2021/05/28 06:17:54;;;;;;;20.50;11.50;;;11.40;87.50;;;;;;5049714;28;20092;-71
2021/05/28 06:20:19;;;;;;;16.58;12.23;;;11.50;87.50;;;;;;5032205;28;20033;-72
2021/05/28 06:22:47;;;;;;;15.35;11.68;;;11.50;87.40;;;;;;5032592;28;20520;-71
2021/05/28 06:25:13;;;;;;;16.15;11.52;;;11.50;87.40;;;;;;5029674;28;20017;-71
2021/05/28 06:27:38;;;;;;;17.42;12.38;;;11.50;87.10;;;;;;5019803;28;20060;-71
2021/05/28 06:30:05;;;;;;;18.15;12.30;;;11.50;87.20;;;;;;5051805;28;20104;-71
2021/05/28 06:32:31;;;;;;;16.92;12.13;;;11.60;87.20;;;;;;5053645;28;20024;-70
2021/05/28 06:34:56;;;;;;;20.50;14.82;;;11.50;86.90;;;;;;5035183;28;20027;-69
2021/05/28 06:37:22;;;;;;;19.13;13.43;;;11.50;87.00;;;;;;5034660;28;20069;-70
2021/05/28 06:39:47;;;;;;;18.98;13.02;;;11.60;87.00;;;;;;5043156;28;20104;-70
2021/05/28 06:42:13;;;;;;;18.48;12.38;;;11.60;87.00;;;;;;5033703;28;20025;-70
2021/05/28 06:44:39;;;;;;;16.13;12.32;;;11.60;86.90;;;;;;5051353;28;20029;-72
2021/05/28 06:47:04;;;;;;;19.02;11.68;;;11.70;86.70;;;;;;5026857;28;20029;-70
2021/05/28 06:49:30;;;;;;;18.45;12.25;;;11.70;86.60;;;;;;5046401;28;20060;-70
2021/05/28 06:51:55;;;;;;;15.07;11.52;;;11.70;86.70;;;;;;5033514;28;20611;-72
2021/05/28 06:54:21;;;;;;;15.77;12.10;;;11.70;86.70;;;;;;5047530;28;20103;-72
2021/05/28 06:56:46;;;;;;;15.63;12.23;;;11.70;86.70;;;;;;5053245;28;20048;-71
2021/05/28 06:59:13;;;;;;;17.48;11.60;;;11.80;86.70;;;;;;5040818;28;20036;-71
2021/05/28 07:01:39;;;;;;;17.88;11.82;;;11.90;86.60;;;;;;5020226;28;20029;-69
2021/05/28 07:04:05;;;;;;;16.13;11.68;;;11.90;86.30;;;;;;5052434;28;20036;-71
2021/05/28 07:06:32;;;;;;;17.80;11.88;;;11.90;86.20;;;;;;5022878;28;20033;-72
2021/05/28 07:08:58;;;;;;;15.57;11.07;;;11.90;86.30;;;;;;5015417;28;20025;-72
2021/05/28 07:11:24;;;;;;;17.23;11.57;;;12.00;86.20;;;;;;5048279;28;20435;-72
2021/05/28 07:13:50;;;;;;;17.02;11.43;;;12.00;86.30;;;;;;5052711;28;20103;-72
2021/05/28 07:16:16;;;;;;;16.92;11.25;;;12.10;86.30;;;;;;5052241;28;20112;-72
2021/05/28 07:18:42;;;;;;;17.55;10.38;;;12.30;86.10;;;;;;5052712;28;20063;-71
2021/05/28 07:21:09;;;;;;;14.77;10.45;;;12.40;86.00;;;;;;5052719;28;20029;-71
2021/05/28 07:23:34;;;;;;;14.60;10.35;;;12.50;85.80;;;;;;5037745;28;20034;-70
2021/05/28 07:26:01;;;;;;;48.40;26.73;;;12.60;85.70;;;;;;5047028;28;20029;-71
2021/05/28 07:28:28;;;;;;;12.82;10.10;;;12.70;85.60;;;;;;5035598;28;20483;-70
2021/05/28 07:30:54;;;;;;;12.00;9.52;;;12.90;85.20;;;;;;5034532;28;20438;-69
2021/05/28 07:33:20;;;;;;;13.55;9.52;;;13.00;84.80;;;;;;5051665;28;20385;-70
2021/05/28 07:35:46;;;;;;;12.63;9.45;;;13.00;84.60;;;;;;5051674;28;20104;-69
2021/05/28 07:38:11;;;;;;;17.80;10.10;;;13.20;84.50;;;;;;5032334;28;20033;-69
2021/05/28 07:40:38;;;;;;;12.68;9.30;;;13.20;84.20;;;;;;5021686;28;20651;-69
2021/05/28 07:43:04;;;;;;;12.40;8.95;;;13.30;83.90;;;;;;5031588;28;20021;-70
2021/05/28 07:45:30;;;;;;;10.98;8.60;;;13.20;84.00;;;;;;5031237;28;20022;-69
2021/05/28 07:47:55;;;;;;;13.63;9.40;;;13.30;83.90;;;;;;5030927;28;20013;-70
2021/05/28 07:50:21;;;;;;;11.90;8.63;;;13.20;83.00;;;;;;5031239;28;20033;-70
2021/05/28 07:52:47;;;;;;;9.85;7.40;;;13.20;83.00;;;;;;5031889;28;20425;-70
2021/05/28 07:55:12;;;;;;;9.80;7.38;;;13.20;83.30;;;;;;5031173;28;20504;-70
2021/05/28 07:57:38;;;;;;;9.02;7.22;;;13.30;83.20;;;;;;5030720;28;20034;-69
2021/05/28 08:00:06;;;;;;;10.23;7.53;;;13.30;82.70;;;;;;5029473;28;20057;-70
2021/05/28 08:02:32;;;;;;;8.65;7.22;;;13.40;82.30;;;;;;5030041;28;20025;-70
2021/05/28 08:04:57;;;;;;;9.27;7.30;;;13.60;82.30;;;;;;5021247;28;20029;-70
2021/05/28 08:07:23;;;;;;;10.02;7.45;;;13.70;82.10;;;;;;5030734;28;20033;-72
2021/05/28 08:09:49;;;;;;;7.50;6.60;;;13.80;81.90;;;;;;5031760;28;20037;-70
2021/05/28 08:12:15;;;;;;;6.53;5.70;;;13.90;81.70;;;;;;5031938;28;20029;-70
2021/05/28 08:14:41;;;;;;;7.43;6.63;;;13.90;81.30;;;;;;5031131;28;20485;-70
2021/05/28 08:17:07;;;;;;;8.20;6.00;;;14.10;81.00;;;;;;5032231;28;20033;-70
2021/05/28 08:19:33;;;;;;;7.88;6.07;;;14.60;80.20;;;;;;5014228;28;20022;-71
2021/05/28 08:21:58;;;;;;;5.38;4.45;;;15.40;78.90;;;;;;5028189;28;20026;-71
2021/05/28 08:24:24;;;;;;;5.05;4.63;;;15.50;78.40;;;;;;4999869;28;20045;-69
2021/05/28 08:26:51;;;;;;;6.22;4.97;;;15.50;77.60;;;;;;5012375;28;20075;-69
2021/05/28 08:29:17;;;;;;;6.05;5.10;;;16.20;76.60;;;;;;5031033;28;20029;-69
2021/05/28 08:31:43;;;;;;;5.35;4.35;;;16.40;75.80;;;;;;5031394;28;20052;-70
2021/05/28 08:34:08;;;;;;;4.90;4.20;;;16.60;75.30;;;;;;5012869;28;20193;-70
2021/05/28 08:36:34;;;;;;;8.00;4.13;;;16.70;75.10;;;;;;5013351;28;20041;-70
2021/05/28 08:39:00;;;;;;;3.95;3.40;;;17.40;73.40;;;;;;5026741;28;20522;-70
2021/05/28 08:41:26;;;;;;;5.57;3.33;;;17.50;72.80;;;;;;5013569;28;20030;-70
2021/05/28 08:43:52;;;;;;;5.03;3.60;;;17.20;73.00;;;;;;5012760;28;20030;-70
2021/05/28 08:46:20;;;;;;;6.22;4.10;;;17.00;73.30;;;;;;5012788;28;20040;-70
2021/05/28 08:48:50;;;;;;;4.00;3.60;;;16.70;73.30;;;;;;5012772;28;20109;-70
2021/05/28 08:51:15;;;;;;;5.57;4.38;;;16.50;73.60;;;;;;5029918;28;20166;-70
2021/05/28 08:53:41;;;;;;;8.40;4.53;;;16.30;73.80;;;;;;5030959;28;20029;-70
2021/05/28 08:56:11;;;;;;;6.53;5.28;;;16.10;73.90;;;;;;5030204;28;20506;-70
2021/05/28 08:58:38;;;;;;;6.57;4.40;;;16.00;73.80;;;;;;5030438;28;20521;-71
2021/05/28 09:01:06;;;;;;;6.40;5.13;;;15.90;73.60;;;;;;5030794;28;20029;-70
2021/05/28 09:03:37;;;;;;;6.32;4.75;;;16.20;73.10;;;;;;5013038;28;20045;-70
2021/05/28 09:06:10;;;;;;;7.85;5.32;;;16.20;73.10;;;;;;5012607;28;20037;-70
2021/05/28 09:08:36;;;;;;;8.45;4.85;;;16.10;73.00;;;;;;5029006;28;20037;-70
2021/05/28 09:11:10;;;;;;;5.88;5.03;;;16.00;73.30;;;;;;5027440;28;20038;-69
2021/05/28 09:13:52;;;;;;;5.43;4.90;;;16.00;72.90;;;;;;5030682;28;20025;-69
2021/05/28 09:16:19;;;;;;;9.63;5.75;;;16.00;72.90;;;;;;5009116;28;20041;-69
2021/05/28 09:18:52;;;;;;;7.15;5.18;;;16.40;71.70;;;;;;4997649;28;20037;-69
2021/05/28 09:21:23;;;;;;;6.55;4.70;;;17.80;69.10;;;;;;5030269;28;20116;-70
2021/05/28 09:23:52;;;;;;;6.38;4.65;;;18.40;67.50;;;;;;5024639;28;20026;-69
2021/05/28 09:26:18;;;;;;;6.50;4.88;;;17.90;68.50;;;;;;5001203;28;20087;-69
2021/05/28 09:28:48;;;;;;;7.07;4.68;;;17.40;69.00;;;;;;5028663;28;20112;-69
2021/05/28 09:31:20;;;;;;;5.30;4.38;;;16.80;70.10;;;;;;5030172;28;20036;-69
2021/05/28 09:33:48;;;;;;;5.82;4.60;;;16.50;70.80;;;;;;5012280;28;20112;-69
2021/05/28 09:36:22;;;;;;;5.63;4.53;;;16.20;71.20;;;;;;5032686;28;20125;-72
2021/05/28 09:39:11;;;;;;;6.57;4.72;;;16.00;71.40;;;;;;5021760;28;20021;-72
2021/05/28 09:41:38;;;;;;;8.00;4.70;;;15.80;71.80;;;;;;5032348;28;20059;-72
2021/05/28 09:44:18;;;;;;;7.13;4.60;;;15.60;72.50;;;;;;5048429;28;20033;-73
2021/05/28 09:46:59;;;;;;;6.80;4.75;;;15.50;72.00;;;;;;5046466;28;20033;-71
2021/05/28 09:49:30;;;;;;;5.90;4.10;;;15.20;71.80;;;;;;5032551;28;20055;-71
2021/05/28 09:52:12;;;;;;;6.85;3.90;;;15.00;72.00;;;;;;5050345;28;20117;-71
2021/05/28 09:55:11;;;;;;;6.03;3.90;;;14.80;72.60;;;;;;5046451;28;20036;-71
2021/05/28 09:57:44;;;;;;;6.03;3.85;;;14.80;73.00;;;;;;4978007;28;20067;-72
2021/05/28 10:00:35;;;;;;;4.47;3.50;;;14.80;73.00;;;;;;5048602;28;20094;-71
2021/05/28 10:03:13;;;;;;;4.38;3.47;;;14.90;72.90;;;;;;5032217;28;20033;-72
2021/05/28 10:05:42;;;;;;;5.40;3.25;;;14.90;72.70;;;;;;5034336;28;20409;-71
2021/05/28 10:08:09;;;;;;;5.38;3.90;;;15.00;73.00;;;;;;5029756;28;20036;-71
2021/05/28 10:10:36;;;;;;;4.57;3.45;;;15.20;73.10;;;;;;5039881;28;20025;-72
2021/05/28 10:13:11;;;;;;;4.22;3.10;;;15.20;73.40;;;;;;5044978;28;20029;-71
2021/05/28 10:15:40;;;;;;;3.70;3.28;;;15.40;72.60;;;;;;5035621;28;20060;-71
2021/05/28 10:18:06;;;;;;;3.85;3.47;;;15.30;72.10;;;;;;5036033;28;20043;-71
2021/05/28 10:20:32;;;;;;;2.70;2.42;;;15.50;72.00;;;;;;5054116;28;20021;-71
2021/05/28 10:22:58;;;;;;;2.50;2.30;;;15.80;72.00;;;;;;5036060;28;20032;-71
2021/05/28 10:25:24;;;;;;;2.58;1.98;;;16.10;71.80;;;;;;5053061;28;20025;-71
2021/05/28 10:28:02;;;;;;;3.58;1.92;;;16.40;71.70;;;;;;5042026;28;20072;-71
2021/05/28 10:30:38;;;;;;;3.10;1.80;;;16.80;70.30;;;;;;5016223;28;20025;-72
2021/05/28 10:33:27;;;;;;;2.30;2.10;;;17.10;69.40;;;;;;5016257;28;20164;-71
2021/05/28 10:36:07;;;;;;;4.03;2.30;;;17.40;69.10;;;;;;5033601;28;20101;-71
2021/05/28 10:38:49;;;;;;;3.15;2.38;;;17.60;68.60;;;;;;5049741;28;20028;-71
2021/05/28 10:41:14;;;;;;;4.17;1.63;;;17.80;68.30;;;;;;5053827;28;20025;-72
2021/05/28 10:43:49;;;;;;;1.45;1.35;;;17.80;68.00;;;;;;5053925;28;20024;-71
2021/05/28 10:46:15;;;;;;;1.75;1.30;;;17.80;66.70;;;;;;5035131;28;20029;-70
2021/05/28 10:48:41;;;;;;;3.17;2.38;;;17.60;66.80;;;;;;5053861;28;20040;-71
2021/05/28 10:51:23;;;;;;;2.35;1.60;;;17.60;67.10;;;;;;5053272;28;20025;-71
2021/05/28 10:53:54;;;;;;;1.52;1.42;;;17.50;66.90;;;;;;5052251;28;20086;-71
2021/05/28 10:56:43;;;;;;;4.47;2.00;;;17.50;66.70;;;;;;5052741;28;20021;-71
2021/05/28 10:59:13;;;;;;;3.35;1.30;;;17.40;66.40;;;;;;5026156;28;20029;-71
2021/05/28 11:01:42;;;;;;;1.38;1.27;;;17.30;66.40;;;;;;5038634;28;20046;-71
2021/05/28 11:04:10;;;;;;;1.60;1.50;;;17.20;66.00;;;;;;5058422;28;20024;-70
2021/05/28 11:06:54;;;;;;;1.83;1.50;;;17.10;66.00;;;;;;5052413;28;20377;-71
2021/05/28 11:09:41;;;;;;;1.90;1.40;;;17.10;66.50;;;;;;5034750;28;20024;-71
2021/05/28 11:12:10;;;;;;;2.53;1.40;;;17.20;66.50;;;;;;5041933;28;20031;-71
2021/05/28 11:14:40;;;;;;;2.22;1.95;;;17.30;66.70;;;;;;5051362;28;20025;-71
2021/05/28 11:17:11;;;;;;;3.13;2.10;;;17.50;66.80;;;;;;5052423;28;20131;-71
2021/05/28 11:19:39;;;;;;;3.00;2.50;;;17.60;66.40;;;;;;5052303;28;20100;-71
2021/05/28 11:22:12;;;;;;;3.90;2.00;;;17.60;66.10;;;;;;5051406;28;20036;-72
2021/05/28 11:24:42;;;;;;;2.17;1.70;;;17.60;66.20;;;;;;5051316;28;20033;-71
2021/05/28 11:27:23;;;;;;;2.63;1.40;;;17.70;66.50;;;;;;5051415;28;20234;-72
2021/05/28 11:29:55;;;;;;;2.53;1.25;;;17.70;66.40;;;;;;5051564;28;20029;-71
2021/05/28 11:32:30;;;;;;;4.57;1.92;;;17.70;65.90;;;;;;5031791;28;20033;-72
2021/05/28 11:35:15;;;;;;;2.58;1.58;;;17.60;64.70;;;;;;5051573;28;20026;-71
2021/05/28 11:37:49;;;;;;;3.00;1.70;;;17.50;64.70;;;;;;5032590;28;20029;-72
2021/05/28 11:40:27;;;;;;;2.55;1.42;;;17.50;64.90;;;;;;5018245;28;20025;-71
2021/05/28 11:43:15;;;;;;;1.88;1.30;;;17.60;65.20;;;;;;5032791;28;20026;-71
2021/05/28 11:45:45;;;;;;;2.72;1.10;;;17.70;65.40;;;;;;5044222;28;20060;-71
2021/05/28 11:48:16;;;;;;;1.98;1.77;;;17.80;64.90;;;;;;5032416;28;20427;-71
2021/05/28 11:50:54;;;;;;;2.97;1.48;;;17.90;64.60;;;;;;5026630;28;20075;-73
2021/05/28 11:53:21;;;;;;;2.78;1.38;;;18.00;64.50;;;;;;5034440;28;20449;-72
2021/05/28 11:55:55;;;;;;;2.63;1.20;;;18.20;64.70;;;;;;5051031;28;20040;-71
2021/05/28 11:58:22;;;;;;;1.80;0.85;;;18.20;64.10;;;;;;5033581;28;20120;-72
2021/05/28 12:00:50;;;;;;;1.95;1.15;;;18.30;63.40;;;;;;5038782;28;20025;-72
2021/05/28 12:03:16;;;;;;;1.67;1.23;;;18.40;63.00;;;;;;5024237;28;20151;-73
2021/05/28 12:05:42;;;;;;;3.17;0.90;;;18.40;63.00;;;;;;5049291;28;20762;-72
2021/05/28 12:08:11;;;;;;;2.35;1.02;;;18.50;62.70;;;;;;5021606;28;20089;-72
2021/05/28 12:10:39;;;;;;;1.98;1.20;;;18.50;62.90;;;;;;5051850;28;20104;-71
2021/05/28 12:13:14;;;;;;;1.38;1.05;;;18.50;62.60;;;;;;5051349;28;20119;-72
2021/05/28 12:15:54;;;;;;;1.63;1.08;;;18.60;62.10;;;;;;5031725;28;20453;-70
2021/05/28 12:18:27;;;;;;;2.60;1.00;;;18.50;61.50;;;;;;5043774;28;20116;-71
2021/05/28 12:21:31;;;;;;;3.15;1.55;;;18.50;61.60;;;;;;5037062;28;20421;-71
2021/05/28 12:23:57;;;;;;;0.98;0.88;;;18.40;61.00;;;;;;4964466;28;20061;-71
2021/05/28 12:26:27;;;;;;;2.70;0.90;;;18.30;61.00;;;;;;4967326;28;20058;-70
2021/05/28 12:29:00;;;;;;;1.70;0.90;;;18.20;60.90;;;;;;5009946;28;20028;-72
2021/05/28 12:31:36;;;;;;;0.90;0.90;;;18.20;61.10;;;;;;5050013;28;20064;-70
2021/05/28 12:34:06;;;;;;;1.30;1.20;;;18.20;61.30;;;;;;5050157;28;20469;-71
2021/05/28 12:36:35;;;;;;;1.98;1.40;;;18.10;61.30;;;;;;5031988;28;20474;-70
2021/05/28 12:39:08;;;;;;;1.15;1.02;;;18.00;61.00;;;;;;5041594;28;20018;-69
2021/05/28 12:41:35;;;;;;;1.73;1.23;;;17.80;61.20;;;;;;5049843;28;20025;-70
2021/05/28 12:44:03;;;;;;;2.25;1.33;;;17.80;61.30;;;;;;5049887;28;20731;-69